createdAt,value
2022-08-27T00:01:12.734Z,95385.16
2022-08-27T00:06:16.431Z,95378.47
2022-08-27T00:11:20.338Z,95388.66
2022-08-27T00:16:23.611Z,95383.25
2022-08-27T00:21:27.059Z,95386.97
2022-08-27T00:26:30.162Z,95404.22
2022-08-27T00:31:33.403Z,95409.97
2022-08-27T00:36:36.278Z,95413.78
2022-08-27T00:41:39.495Z,95419.50
2022-08-27T00:46:42.233Z,95423.34
2022-08-27T00:51:45.616Z,95420.84
2022-08-27T00:56:52.591Z,95410.63
2022-08-27T01:02:13.083Z,95415.25
2022-08-27T01:07:16.008Z,95403.44
2022-08-27T01:12:19.600Z,95393.22
2022-08-27T01:17:22.504Z,95395.13
2022-08-27T01:22:25.570Z,95389.50
2022-08-27T01:27:28.372Z,95393.41
2022-08-27T01:32:31.209Z,95396.59
2022-08-27T01:37:35.047Z,95395.78
2022-08-27T01:42:46.702Z,95399.13
2022-08-27T01:47:53.506Z,95397.03
2022-08-27T01:52:56.610Z,95397.66
2022-08-27T01:57:59.466Z,95403.53
2022-08-27T02:03:02.366Z,95398.53
2022-08-27T02:08:05.183Z,95399.25
2022-08-27T02:13:08.371Z,95386.94
2022-08-27T02:18:11.739Z,95391.88
2022-08-27T02:23:14.878Z,95385.00
2022-08-27T02:28:17.995Z,95374.31
2022-08-27T02:33:20.757Z,95374.31
2022-08-27T02:38:24.874Z,95373.66
2022-08-27T02:43:29.443Z,95375.44
2022-08-27T02:48:32.397Z,95373.16
2022-08-27T02:53:35.174Z,95366.94
2022-08-27T02:58:38.988Z,95373.97
2022-08-27T03:03:41.877Z,95373.00
2022-08-27T03:08:53.108Z,95375.03
2022-08-27T03:13:56.541Z,95386.72
2022-08-27T03:18:59.472Z,95387.09
2022-08-27T03:24:09.231Z,95395.78
2022-08-27T03:29:14.293Z,95397.22
2022-08-27T03:34:19.937Z,95399.91
2022-08-27T03:39:22.856Z,95403.63
2022-08-27T03:44:25.760Z,95400.91
2022-08-27T03:49:28.933Z,95397.25
2022-08-27T03:54:32.934Z,95398.53
2022-08-27T03:59:36.320Z,95391.97
2022-08-27T04:04:39.245Z,95395.31
2022-08-27T04:09:42.578Z,95395.19
2022-08-27T04:14:45.346Z,95396.78
2022-08-27T04:19:48.128Z,95396.75
2022-08-27T04:24:51.147Z,95404.72
2022-08-27T04:29:54.022Z,95410.00
2022-08-27T04:34:56.844Z,95407.94
2022-08-27T04:39:59.653Z,95418.13
2022-08-27T04:45:03.021Z,95410.28
2022-08-27T04:50:06.384Z,95412.84
2022-08-27T04:55:11.311Z,95409.50
2022-08-27T05:00:14.178Z,95415.53
2022-08-27T05:05:17.083Z,95418.09
2022-08-27T05:10:20.138Z,95417.03
2022-08-27T05:15:23.143Z,95419.56
2022-08-27T05:20:26.562Z,95416.81
2022-08-27T05:25:30.345Z,95409.41
2022-08-27T05:30:33.202Z,95412.84
2022-08-27T05:35:36.087Z,95413.59
2022-08-27T05:40:38.995Z,95408.41
2022-08-27T05:45:41.722Z,95409.19
2022-08-27T05:50:44.545Z,95405.16
2022-08-27T05:55:47.446Z,95405.88
2022-08-27T06:01:09.613Z,95408.75
2022-08-27T06:06:12.954Z,95408.81
2022-08-27T06:11:16.018Z,95416.72
2022-08-27T06:16:19.580Z,95414.00
2022-08-27T06:21:24.842Z,95422.06
2022-08-27T06:26:27.767Z,95416.09
2022-08-27T06:31:30.728Z,95405.22
2022-08-27T06:36:34.500Z,95402.91
2022-08-27T06:41:37.321Z,95411.19
2022-08-27T06:46:40.181Z,95407.03
2022-08-27T06:51:42.998Z,95404.47
2022-08-27T06:56:45.802Z,95406.91
2022-08-27T07:01:49.394Z,95407.72
2022-08-27T07:06:52.630Z,95395.38
2022-08-27T07:11:55.748Z,95406.31
2022-08-27T07:16:58.907Z,95412.88
2022-08-27T07:22:01.915Z,95419.69
2022-08-27T07:27:04.648Z,95417.31
2022-08-27T07:32:07.393Z,95426.63
2022-08-27T07:37:10.327Z,95427.97
2022-08-27T07:42:30.978Z,95439.03
2022-08-27T07:47:33.870Z,95435.69
2022-08-27T07:52:36.760Z,95430.66
2022-08-27T07:57:39.530Z,95432.94
2022-08-27T08:02:44.921Z,95429.41
2022-08-27T08:07:48.001Z,95439.38
2022-08-27T08:12:50.982Z,95439.13
2022-08-27T08:17:54.057Z,95447.31
2022-08-27T08:22:56.798Z,95447.22
2022-08-27T08:28:00.310Z,95453.00
2022-08-27T08:33:03.227Z,95456.00
2022-08-27T08:38:06.013Z,95446.63
2022-08-27T08:43:08.839Z,95453.88
2022-08-27T08:48:12.426Z,95457.91
2022-08-27T08:53:15.546Z,95454.66
2022-08-27T08:58:18.396Z,95458.41
2022-08-27T09:03:21.230Z,95456.47
2022-08-27T09:08:41.951Z,95454.50
2022-08-27T09:13:45.177Z,95454.88
2022-08-27T09:18:52.334Z,95457.97
2022-08-27T09:23:57.452Z,95462.88
2022-08-27T09:29:20.107Z,95463.97
2022-08-27T09:34:23.091Z,95457.59
2022-08-27T09:39:25.953Z,95460.66
2022-08-27T09:44:28.830Z,95461.28
2022-08-27T09:49:34.647Z,95457.13
2022-08-27T09:54:37.419Z,95444.47
2022-08-27T09:59:40.128Z,95445.66
2022-08-27T10:04:51.307Z,95441.31
2022-08-27T10:09:54.779Z,95443.53
2022-08-27T10:14:57.640Z,95440.34
2022-08-27T10:20:00.415Z,95440.03
2022-08-27T10:25:04.465Z,95438.63
2022-08-27T10:30:07.476Z,95432.09
2022-08-27T10:35:10.218Z,95438.13
2022-08-27T10:40:13.103Z,95439.50
2022-08-27T10:45:15.962Z,95432.53
2022-08-27T10:50:34.761Z,95436.28
2022-08-27T10:55:37.605Z,95436.09
2022-08-27T11:00:41.069Z,95425.41
2022-08-27T11:05:43.902Z,95416.28
2022-08-27T11:10:46.717Z,95405.53
2022-08-27T11:15:49.501Z,95406.03
2022-08-27T11:20:53.761Z,95402.31
2022-08-27T11:25:57.147Z,95405.94
2022-08-27T11:31:08.890Z,95406.94
2022-08-27T11:36:11.711Z,95398.78
2022-08-27T11:41:14.817Z,95400.41
2022-08-27T11:46:17.711Z,95403.22
2022-08-27T11:51:28.600Z,95393.50
2022-08-27T11:56:32.920Z,95386.53
2022-08-27T12:01:35.659Z,95386.06
2022-08-27T12:06:38.374Z,95373.03
2022-08-27T12:11:41.086Z,95373.56
2022-08-27T12:16:44.481Z,95372.03
2022-08-27T12:21:47.286Z,95371.81
2022-08-27T12:26:50.869Z,95349.97
2022-08-27T12:31:54.464Z,95338.47
2022-08-27T12:36:57.390Z,95344.00
2022-08-27T12:42:00.650Z,95340.09
2022-08-27T12:47:03.531Z,95341.06
2022-08-27T12:52:06.470Z,95338.09
2022-08-27T12:57:09.261Z,95340.41
2022-08-27T13:02:12.460Z,95333.88
2022-08-27T13:07:15.578Z,95333.44
2022-08-27T13:12:18.344Z,95329.00
2022-08-27T13:17:22.785Z,95324.06
2022-08-27T13:22:25.553Z,95312.69
2022-08-27T13:27:30.398Z,95308.13
2022-08-27T13:32:36.437Z,95305.84
2022-08-27T13:37:39.693Z,95302.72
2022-08-27T13:42:43.270Z,95306.44
2022-08-27T13:47:46.472Z,95302.56
2022-08-27T13:53:07.475Z,95308.91
2022-08-27T13:58:16.576Z,95304.78
2022-08-27T14:03:22.857Z,95309.03
2022-08-27T14:08:28.639Z,95315.25
2022-08-27T14:13:33.204Z,95316.03
2022-08-27T14:18:58.283Z,95318.78
2022-08-27T14:24:02.200Z,95324.53
2022-08-27T14:29:11.761Z,95306.09
2022-08-27T14:34:15.700Z,95311.25
2022-08-27T14:39:18.564Z,95302.28
2022-08-27T14:44:24.736Z,95298.41
2022-08-27T14:49:28.177Z,95298.69
2022-08-27T14:54:33.419Z,95288.06
2022-08-27T14:59:36.595Z,95290.59
2022-08-27T15:04:40.617Z,95279.72
2022-08-27T15:09:47.163Z,95288.53
2022-08-27T15:14:50.082Z,95270.44
2022-08-27T15:19:52.871Z,95279.09
2022-08-27T15:24:55.787Z,95276.09
2022-08-27T15:29:58.660Z,95276.06
2022-08-27T15:35:01.699Z,95272.75
2022-08-27T15:40:04.594Z,95285.78
2022-08-27T15:45:07.399Z,95276.09
2022-08-27T15:50:10.208Z,95284.34
2022-08-27T15:55:14.407Z,95303.06
2022-08-27T16:00:17.913Z,95298.09
2022-08-27T16:05:22.156Z,95305.28
2022-08-27T16:10:25.139Z,95312.16
2022-08-27T16:15:28.015Z,95305.28
2022-08-27T16:20:30.773Z,95304.19
2022-08-27T16:25:34.158Z,95308.03
2022-08-27T16:30:36.981Z,95300.50
2022-08-27T16:35:40.005Z,95299.06
2022-08-27T16:40:43.890Z,95300.91
2022-08-27T16:45:46.745Z,95300.50
2022-08-27T16:50:49.542Z,95304.97
2022-08-27T16:55:52.774Z,95312.75
2022-08-27T17:01:00.167Z,95316.13
2022-08-27T17:06:03.089Z,95323.59
2022-08-27T17:11:06.294Z,95326.09
2022-08-27T17:16:09.544Z,95327.88
2022-08-27T17:21:12.432Z,95330.38
2022-08-27T17:26:15.182Z,95329.63
2022-08-27T17:31:18.019Z,95340.66
2022-08-27T17:36:30.588Z,95347.94
2022-08-27T17:41:34.301Z,95355.78
2022-08-27T17:46:37.378Z,95350.31
2022-08-27T17:51:40.572Z,95350.63
2022-08-27T17:56:44.127Z,95362.94
2022-08-27T18:01:47.075Z,95370.94
2022-08-27T18:06:49.853Z,95372.19
2022-08-27T18:11:53.127Z,95372.53
2022-08-27T18:17:00.815Z,95381.88
2022-08-27T18:22:06.041Z,95398.25
2022-08-27T18:27:09.417Z,95409.75
2022-08-27T18:32:12.351Z,95412.56
2022-08-27T18:37:19.417Z,95410.53
2022-08-27T18:42:22.190Z,95419.16
2022-08-27T18:47:26.063Z,95418.50
2022-08-27T18:52:28.870Z,95424.97
2022-08-27T18:57:32.032Z,95428.03
2022-08-27T19:02:34.909Z,95440.31
2022-08-27T19:07:37.742Z,95444.28
2022-08-27T19:12:40.583Z,95448.00
2022-08-27T19:17:43.391Z,95454.03
2022-08-27T19:22:46.113Z,95453.38
2022-08-27T19:27:48.801Z,95452.34
2022-08-27T19:32:55.028Z,95450.44
2022-08-27T19:37:59.922Z,95458.31
2022-08-27T19:43:04.018Z,95470.00
2022-08-27T19:48:06.790Z,95472.31
2022-08-27T19:53:09.517Z,95481.75
2022-08-27T19:58:16.026Z,95473.97
2022-08-27T20:03:19.470Z,95483.19
2022-08-27T20:08:22.287Z,95488.97
2022-08-27T20:13:25.226Z,95483.41
2022-08-27T20:18:29.249Z,95486.91
2022-08-27T20:23:32.086Z,95496.66
2022-08-27T20:28:39.632Z,95490.09
2022-08-27T20:33:43.434Z,95492.34
2022-08-27T20:38:46.272Z,95497.47
2022-08-27T20:43:49.291Z,95502.72
2022-08-27T20:48:52.137Z,95502.09
2022-08-27T20:53:54.983Z,95514.41
2022-08-27T20:59:15.526Z,95520.88
2022-08-27T21:04:18.398Z,95514.34
2022-08-27T21:09:21.335Z,95511.03
2022-08-27T21:14:24.143Z,95514.25
2022-08-27T21:19:30.554Z,95519.22
2022-08-27T21:24:43.454Z,95529.66
2022-08-27T21:29:46.283Z,95534.59
2022-08-27T21:34:49.275Z,95539.41
2022-08-27T21:39:52.329Z,95538.47
2022-08-27T21:44:55.544Z,95535.91
2022-08-27T21:49:58.353Z,95540.53
2022-08-27T21:55:02.523Z,95545.66
2022-08-27T22:00:10.540Z,95547.56
2022-08-27T22:05:13.355Z,95542.13
2022-08-27T22:10:16.168Z,95549.44
2022-08-27T22:15:19.006Z,95549.25
2022-08-27T22:20:21.937Z,95555.16
2022-08-27T22:25:24.798Z,95564.41
2022-08-27T22:30:27.678Z,95562.34
2022-08-27T22:35:30.665Z,95571.13
2022-08-27T22:40:34.241Z,95564.13
2022-08-27T22:45:37.049Z,95563.63
2022-08-27T22:50:39.839Z,95560.75
2022-08-27T22:55:44.704Z,95561.06
2022-08-27T23:00:52.563Z,95556.28
2022-08-27T23:06:05.662Z,95559.28
2022-08-27T23:11:08.411Z,95555.13
2022-08-27T23:16:11.739Z,95551.31
2022-08-27T23:21:14.895Z,95544.53
2022-08-27T23:26:35.240Z,95541.94
2022-08-27T23:31:38.535Z,95528.66
2022-08-27T23:36:41.750Z,95541.63
2022-08-27T23:41:44.506Z,95541.13
2022-08-27T23:46:48.459Z,95540.81
2022-08-27T23:51:53.592Z,95539.09
2022-08-27T23:56:57.527Z,95533.59
